createdAt,value
2024-05-09T00:01:34.415Z,1.40
2024-05-09T00:04:09.807Z,1.50
2024-05-09T00:06:42.679Z,1.67
2024-05-09T00:09:15.559Z,1.58
2024-05-09T00:11:48.388Z,1.42
2024-05-09T00:14:21.077Z,1.50
2024-05-09T00:16:53.534Z,1.48
2024-05-09T00:19:28.809Z,1.60
2024-05-09T00:22:01.443Z,1.40
2024-05-09T00:24:33.804Z,1.40
2024-05-09T00:27:06.428Z,1.40
2024-05-09T00:29:39.322Z,1.58
2024-05-09T00:32:12.383Z,1.45
2024-05-09T00:34:47.799Z,1.70
2024-05-09T00:37:20.158Z,1.60
2024-05-09T00:39:53.043Z,1.40
2024-05-09T00:42:25.628Z,1.60
2024-05-09T00:44:58.294Z,1.70
2024-05-09T00:47:31.094Z,1.65
2024-05-09T00:50:10.155Z,1.50
2024-05-09T00:52:48.517Z,1.10
2024-05-09T00:55:21.719Z,1.48
2024-05-09T00:57:54.609Z,1.60
2024-05-09T01:00:35.500Z,1.48
2024-05-09T01:03:13.662Z,1.30
2024-05-09T01:05:50.250Z,1.40
2024-05-09T01:08:23.262Z,1.30
2024-05-09T01:10:55.946Z,1.20
2024-05-09T01:13:28.498Z,1.30
2024-05-09T01:16:01.230Z,1.38
2024-05-09T01:18:34.985Z,1.17
2024-05-09T01:21:10.848Z,1.20
2024-05-09T01:23:46.295Z,1.20
2024-05-09T01:26:19.001Z,1.17
2024-05-09T01:28:51.792Z,1.42
2024-05-09T01:31:24.380Z,1.30
2024-05-09T01:33:57.242Z,1.60
2024-05-09T01:36:30.079Z,1.30
2024-05-09T01:39:05.519Z,1.40
2024-05-09T01:41:38.123Z,1.50
2024-05-09T01:44:10.789Z,1.40
2024-05-09T01:46:43.434Z,1.45
2024-05-09T01:49:16.692Z,1.45
2024-05-09T01:51:49.529Z,1.30
2024-05-09T01:54:27.880Z,1.35
2024-05-09T01:57:00.606Z,1.38
2024-05-09T01:59:34.046Z,1.35
2024-05-09T02:02:07.093Z,1.25
2024-05-09T02:04:39.688Z,1.45
2024-05-09T02:07:12.778Z,1.20
2024-05-09T02:09:48.018Z,1.20
2024-05-09T02:12:20.785Z,1.48
2024-05-09T02:14:54.607Z,1.40
2024-05-09T02:17:27.538Z,1.40
2024-05-09T02:20:00.297Z,1.40
2024-05-09T02:22:36.638Z,1.25
2024-05-09T02:25:12.186Z,1.30
2024-05-09T02:27:44.659Z,1.33
2024-05-09T02:30:26.215Z,1.35
2024-05-09T02:33:09.930Z,1.30
2024-05-09T02:35:44.958Z,1.20
2024-05-09T02:38:14.955Z,1.50
2024-05-09T02:40:50.408Z,1.30
2024-05-09T02:43:20.121Z,1.35
2024-05-09T02:45:52.461Z,1.38
2024-05-09T02:48:25.272Z,1.58
2024-05-09T02:50:57.986Z,1.40
2024-05-09T02:53:27.986Z,1.40
2024-05-09T02:56:03.634Z,1.20
2024-05-09T02:58:33.702Z,1.45
2024-05-09T03:01:06.546Z,1.48
2024-05-09T03:03:37.305Z,1.20
2024-05-09T03:06:10.106Z,1.30
2024-05-09T03:08:40.047Z,1.20
2024-05-09T03:11:24.746Z,1.30
2024-05-09T03:13:54.938Z,1.30
2024-05-09T03:16:27.580Z,1.30
2024-05-09T03:18:57.389Z,1.20
2024-05-09T03:21:30.264Z,1.50
2024-05-09T03:23:59.876Z,1.20
2024-05-09T03:26:35.318Z,1.20
2024-05-09T03:29:05.145Z,1.58
2024-05-09T03:31:37.633Z,1.42
2024-05-09T03:34:08.091Z,1.50
2024-05-09T03:36:41.019Z,2.60
2024-05-09T03:39:14.816Z,3.00
2024-05-09T03:41:49.858Z,2.50
2024-05-09T03:44:22.657Z,1.70
2024-05-09T03:46:52.775Z,1.60
2024-05-09T03:49:26.311Z,1.48
2024-05-09T03:51:56.377Z,1.40
2024-05-09T03:54:29.056Z,1.50
2024-05-09T03:57:02.252Z,1.40
2024-05-09T03:59:34.511Z,1.33
2024-05-09T04:02:05.092Z,1.52
2024-05-09T04:04:37.776Z,1.60
2024-05-09T04:07:07.640Z,1.55
2024-05-09T04:09:40.015Z,1.40
2024-05-09T04:12:13.764Z,1.38
2024-05-09T04:14:46.902Z,1.60
2024-05-09T04:17:16.807Z,1.45
2024-05-09T04:19:49.207Z,1.40
2024-05-09T04:22:21.962Z,1.50
2024-05-09T04:24:53.488Z,1.58
2024-05-09T04:27:28.860Z,1.50
2024-05-09T04:29:58.497Z,1.52
2024-05-09T04:32:31.184Z,1.50
2024-05-09T04:35:01.167Z,1.50
2024-05-09T04:37:33.939Z,1.50
2024-05-09T04:40:05.427Z,1.40
2024-05-09T04:42:44.845Z,1.40
2024-05-09T04:45:14.598Z,1.50
2024-05-09T04:47:47.514Z,1.40
2024-05-09T04:50:24.708Z,1.30
2024-05-09T04:53:02.343Z,1.40
2024-05-09T04:55:33.386Z,1.50
2024-05-09T04:58:09.383Z,1.40
2024-05-09T05:00:40.484Z,1.40
2024-05-09T05:03:16.358Z,1.40
2024-05-09T05:05:46.904Z,1.50
2024-05-09T05:08:20.169Z,1.30
2024-05-09T05:10:50.274Z,1.48
2024-05-09T05:13:25.784Z,1.50
2024-05-09T05:15:58.135Z,1.50
2024-05-09T05:18:31.514Z,1.52
2024-05-09T05:21:01.337Z,1.60
2024-05-09T05:23:34.294Z,1.50
2024-05-09T05:26:04.139Z,1.40
2024-05-09T05:28:39.724Z,1.42
2024-05-09T05:31:09.527Z,1.30
2024-05-09T05:33:42.245Z,1.50
2024-05-09T05:36:12.625Z,1.55
2024-05-09T05:38:46.229Z,1.70
2024-05-09T05:41:16.607Z,1.70
2024-05-09T05:43:52.300Z,1.70
2024-05-09T05:46:22.150Z,1.48
2024-05-09T05:48:54.951Z,1.27
2024-05-09T05:51:25.445Z,1.60
2024-05-09T05:53:59.345Z,1.40
2024-05-09T05:56:29.242Z,1.20
2024-05-09T05:59:04.968Z,1.17
2024-05-09T06:01:35.283Z,1.30
2024-05-09T06:04:08.283Z,1.48
2024-05-09T06:06:40.988Z,1.50
2024-05-09T06:09:11.012Z,1.40
2024-05-09T06:11:45.023Z,1.77
2024-05-09T06:14:18.065Z,1.80
2024-05-09T06:16:50.625Z,1.80
2024-05-09T06:19:21.198Z,1.85
2024-05-09T06:21:53.791Z,1.63
2024-05-09T06:24:23.502Z,1.73
2024-05-09T06:26:56.181Z,1.77
2024-05-09T06:29:29.001Z,1.60
2024-05-09T06:32:01.841Z,1.60
2024-05-09T06:34:31.910Z,1.70
2024-05-09T06:37:04.780Z,1.75
2024-05-09T06:39:34.341Z,1.60
2024-05-09T06:42:07.851Z,1.83
2024-05-09T06:44:41.262Z,1.73
2024-05-09T06:47:14.650Z,1.60
2024-05-09T06:49:44.443Z,2.00
2024-05-09T06:52:17.340Z,2.00
2024-05-09T06:54:47.045Z,2.10
2024-05-09T06:57:20.019Z,2.00
2024-05-09T06:59:53.420Z,1.80
2024-05-09T07:02:26.504Z,1.73
2024-05-09T07:04:56.860Z,1.60
2024-05-09T07:07:30.063Z,1.88
2024-05-09T07:10:02.203Z,2.28
2024-05-09T07:12:35.099Z,2.40
2024-05-09T07:15:08.481Z,2.10
2024-05-09T07:17:41.405Z,2.10
2024-05-09T07:20:19.857Z,1.90
2024-05-09T07:22:59.943Z,1.88
2024-05-09T07:25:30.458Z,2.28
2024-05-09T07:28:03.869Z,2.03
2024-05-09T07:30:36.450Z,2.00
2024-05-09T07:33:09.536Z,2.22
2024-05-09T07:35:39.376Z,2.00
2024-05-09T07:38:13.228Z,2.10
2024-05-09T07:40:44.892Z,2.22
2024-05-09T07:43:18.125Z,1.83
2024-05-09T07:45:54.212Z,2.20
2024-05-09T07:50:01.138Z,2.10
2024-05-09T07:53:58.277Z,2.10
2024-05-09T07:56:30.839Z,2.13
2024-05-09T07:59:04.572Z,2.20
2024-05-09T08:01:38.330Z,1.90
2024-05-09T08:04:11.224Z,1.92
2024-05-09T08:06:41.364Z,2.30
2024-05-09T08:09:20.533Z,2.00
2024-05-09T08:11:53.259Z,2.42
2024-05-09T08:14:27.605Z,2.10
2024-05-09T08:17:00.467Z,1.80
2024-05-09T08:19:33.524Z,2.10
2024-05-09T08:22:08.779Z,1.85
2024-05-09T08:24:38.706Z,2.13
2024-05-09T08:27:11.628Z,2.55
2024-05-09T08:29:41.361Z,1.90
2024-05-09T08:32:17.739Z,1.90
2024-05-09T08:34:47.638Z,2.65
2024-05-09T08:37:23.403Z,2.38
2024-05-09T08:39:56.007Z,1.83
2024-05-09T08:42:30.115Z,7.15
2024-05-09T08:45:00.260Z,17.20
2024-05-09T08:47:37.021Z,24.20
2024-05-09T08:50:16.584Z,3.15
2024-05-09T08:52:56.797Z,2.00
2024-05-09T08:55:26.656Z,4.63
2024-05-09T08:58:00.093Z,1.98
2024-05-09T09:00:36.722Z,1.80
2024-05-09T09:03:16.367Z,1.90
2024-05-09T09:05:50.331Z,1.65
2024-05-09T09:08:23.781Z,1.77
2024-05-09T09:10:55.309Z,2.72
2024-05-09T09:13:28.264Z,2.30
2024-05-09T09:15:59.717Z,2.10
2024-05-09T09:18:35.606Z,2.20
2024-05-09T09:21:05.522Z,2.08
2024-05-09T09:23:38.298Z,1.83
2024-05-09T09:26:08.033Z,1.98
2024-05-09T09:28:41.831Z,2.00
2024-05-09T09:31:11.887Z,3.30
2024-05-09T09:33:50.188Z,1.77
2024-05-09T09:36:21.079Z,2.10
2024-05-09T09:38:53.657Z,1.85
2024-05-09T09:41:26.238Z,1.73
2024-05-09T09:43:59.428Z,1.85
2024-05-09T09:46:32.040Z,2.10
2024-05-09T09:49:07.666Z,2.50
2024-05-09T09:51:38.519Z,2.00
2024-05-09T09:54:11.678Z,2.00
2024-05-09T09:56:43.979Z,1.95
2024-05-09T09:59:17.561Z,1.70
2024-05-09T10:01:47.755Z,1.98
2024-05-09T10:04:23.195Z,1.80
2024-05-09T10:06:54.136Z,1.60
2024-05-09T10:09:26.737Z,1.73
2024-05-09T10:12:00.225Z,1.80
2024-05-09T10:14:35.480Z,1.73
2024-05-09T10:17:08.630Z,2.00
2024-05-09T10:19:43.976Z,1.90
2024-05-09T10:22:13.913Z,1.70
2024-05-09T10:24:54.937Z,1.52
2024-05-09T10:27:31.063Z,1.60
2024-05-09T10:30:09.102Z,1.60
2024-05-09T10:32:44.750Z,1.70
2024-05-09T10:35:27.724Z,1.63
2024-05-09T10:37:58.054Z,1.80
2024-05-09T10:40:32.038Z,1.70
2024-05-09T10:43:05.624Z,1.63
2024-05-09T10:45:41.024Z,2.10
2024-05-09T10:48:11.498Z,1.85
2024-05-09T10:50:50.258Z,2.05
2024-05-09T10:53:20.782Z,1.80
2024-05-09T10:56:00.833Z,1.75
2024-05-09T10:58:30.741Z,1.67
2024-05-09T11:01:06.577Z,1.88
2024-05-09T11:03:37.412Z,1.80
2024-05-09T11:06:13.804Z,1.83
2024-05-09T11:08:43.922Z,1.90
2024-05-09T11:11:16.723Z,1.80
2024-05-09T11:13:47.233Z,1.83
2024-05-09T11:16:23.862Z,1.70
2024-05-09T11:18:57.961Z,1.90
2024-05-09T11:21:34.659Z,1.70
2024-05-09T11:24:08.738Z,1.80
2024-05-09T11:26:44.657Z,1.90
2024-05-09T11:29:17.927Z,1.98
2024-05-09T11:31:53.210Z,2.08
2024-05-09T11:34:41.578Z,2.00
2024-05-09T11:37:14.194Z,1.83
2024-05-09T11:39:48.058Z,1.80
2024-05-09T11:42:18.880Z,1.75
2024-05-09T11:44:53.139Z,1.80
2024-05-09T11:47:23.522Z,1.73
2024-05-09T11:50:00.299Z,1.70
2024-05-09T11:52:30.172Z,1.70
2024-05-09T11:55:03.710Z,1.80
2024-05-09T11:57:33.834Z,1.92
2024-05-09T12:00:09.631Z,1.88
2024-05-09T12:02:42.743Z,1.90
2024-05-09T12:05:19.490Z,1.90
2024-05-09T12:07:52.307Z,1.92
2024-05-09T12:10:32.323Z,1.80
2024-05-09T12:13:07.410Z,2.00
2024-05-09T12:15:41.840Z,2.10
2024-05-09T12:18:15.163Z,2.00
2024-05-09T12:20:52.078Z,2.13
2024-05-09T12:23:26.713Z,1.90
2024-05-09T12:25:59.687Z,1.90
2024-05-09T12:28:29.839Z,1.83
2024-05-09T12:31:02.469Z,1.95
2024-05-09T12:33:32.457Z,2.15
2024-05-09T12:36:09.301Z,2.08
2024-05-09T12:38:39.484Z,2.10
2024-05-09T12:41:13.103Z,2.00
2024-05-09T12:43:43.634Z,2.10
2024-05-09T12:46:16.780Z,2.08
2024-05-09T12:48:47.445Z,1.88
2024-05-09T12:51:23.610Z,2.00
2024-05-09T12:53:57.428Z,2.00
2024-05-09T12:56:30.209Z,1.90
2024-05-09T12:59:00.837Z,2.13
2024-05-09T13:01:34.126Z,1.77
2024-05-09T13:04:05.243Z,1.80
2024-05-09T13:06:41.150Z,2.10
2024-05-09T13:09:12.474Z,1.90
2024-05-09T13:11:45.531Z,1.95
2024-05-09T13:14:17.836Z,1.92
2024-05-09T13:16:54.040Z,2.03
2024-05-09T13:19:24.938Z,1.92
2024-05-09T13:22:00.726Z,2.33
2024-05-09T13:24:30.860Z,2.10
2024-05-09T13:27:03.582Z,2.10
2024-05-09T13:29:33.895Z,2.10
2024-05-09T13:32:06.764Z,2.20
2024-05-09T13:34:36.830Z,1.95
2024-05-09T13:37:12.548Z,1.90
2024-05-09T13:39:42.599Z,1.98
2024-05-09T13:42:16.188Z,2.10
2024-05-09T13:44:46.241Z,2.20
2024-05-09T13:47:18.999Z,2.00
2024-05-09T13:49:50.346Z,2.05
2024-05-09T13:52:27.249Z,2.53
2024-05-09T13:54:57.753Z,2.53
2024-05-09T13:57:30.662Z,2.40
2024-05-09T14:00:00.728Z,2.47
2024-05-09T14:02:33.914Z,2.42
2024-05-09T14:05:04.594Z,2.20
2024-05-09T14:07:42.136Z,2.70
2024-05-09T14:10:25.526Z,2.13
2024-05-09T14:13:03.972Z,2.20
2024-05-09T14:15:35.164Z,2.35
2024-05-09T14:18:13.382Z,2.28
2024-05-09T14:20:47.985Z,2.50
2024-05-09T14:23:25.364Z,2.45
2024-05-09T14:26:00.779Z,2.42
2024-05-09T14:28:37.881Z,2.42
2024-05-09T14:31:08.241Z,2.63
2024-05-09T14:33:41.662Z,2.60
2024-05-09T14:36:12.158Z,2.30
2024-05-09T14:38:48.291Z,2.40
2024-05-09T14:41:18.634Z,2.22
2024-05-09T14:43:51.189Z,2.70
2024-05-09T14:46:21.379Z,2.60
2024-05-09T14:48:56.427Z,2.60
2024-05-09T14:51:28.539Z,2.50
2024-05-09T14:54:05.602Z,2.67
2024-05-09T14:56:39.717Z,3.13
2024-05-09T14:59:12.583Z,2.80
2024-05-09T15:01:42.956Z,2.92
2024-05-09T15:04:16.177Z,2.67
2024-05-09T15:06:46.499Z,2.55
2024-05-09T15:09:22.811Z,3.10
2024-05-09T15:11:53.569Z,2.33
2024-05-09T15:14:29.388Z,2.42
2024-05-09T15:17:01.076Z,2.55
2024-05-09T15:19:34.611Z,2.65
2024-05-09T15:26:57.930Z,2.25
2024-05-09T15:29:31.948Z,3.00
2024-05-09T15:32:05.012Z,2.70
2024-05-09T15:34:40.812Z,2.90
2024-05-09T15:37:13.944Z,2.70
2024-05-09T15:39:44.136Z,2.70
2024-05-09T15:42:17.493Z,2.90
2024-05-09T15:44:53.650Z,2.90
2024-05-09T15:47:28.747Z,2.85
2024-05-09T15:49:58.761Z,2.83
2024-05-09T15:52:32.095Z,3.10
2024-05-09T15:55:02.550Z,2.97
2024-05-09T15:57:37.625Z,3.00
2024-05-09T16:00:21.473Z,2.70
2024-05-09T16:02:58.181Z,2.80
2024-05-09T16:05:29.158Z,2.83
2024-05-09T16:08:02.309Z,2.75
2024-05-09T16:10:34.322Z,2.72
2024-05-09T16:13:08.283Z,2.63
2024-05-09T16:15:41.900Z,2.60
2024-05-09T16:18:15.718Z,2.53
2024-05-09T16:20:48.504Z,2.53
2024-05-09T16:23:23.084Z,2.80
2024-05-09T16:25:53.409Z,2.40
2024-05-09T16:28:27.945Z,2.90
2024-05-09T16:31:02.288Z,2.30
2024-05-09T16:33:35.390Z,2.20
2024-05-09T16:36:05.970Z,2.20
2024-05-09T16:38:39.991Z,2.22
2024-05-09T16:41:10.523Z,2.50
2024-05-09T16:43:43.393Z,2.70
2024-05-09T16:46:16.458Z,2.38
2024-05-09T16:48:49.084Z,2.47
2024-05-09T16:51:18.795Z,2.40
2024-05-09T16:53:51.865Z,2.40
2024-05-09T16:56:24.844Z,2.38
2024-05-09T16:58:57.420Z,2.60
2024-05-09T17:01:32.285Z,2.53
2024-05-09T17:04:05.317Z,2.28
2024-05-09T17:06:35.998Z,2.75
2024-05-09T17:09:11.917Z,2.20
2024-05-09T17:11:48.024Z,2.63
2024-05-09T17:14:20.961Z,2.50
2024-05-09T17:16:57.362Z,2.70
2024-05-09T17:19:30.449Z,2.60
2024-05-09T17:22:01.227Z,2.50
2024-05-09T17:24:35.389Z,2.38
2024-05-09T17:27:05.889Z,2.63
2024-05-09T17:29:38.679Z,2.60
2024-05-09T17:32:12.819Z,2.33
2024-05-09T17:34:45.962Z,2.83
2024-05-09T17:37:15.823Z,2.75
2024-05-09T17:39:48.649Z,2.80
2024-05-09T17:42:18.296Z,3.22
2024-05-09T17:44:51.780Z,2.85
2024-05-09T17:47:25.820Z,2.40
2024-05-09T17:49:58.834Z,2.55
2024-05-09T17:52:29.239Z,2.65
2024-05-09T17:55:02.166Z,2.55
2024-05-09T17:57:35.607Z,2.90
2024-05-09T18:00:11.595Z,2.70
2024-05-09T18:02:50.024Z,2.80
2024-05-09T18:05:24.822Z,2.97
2024-05-09T18:07:55.521Z,2.60
2024-05-09T18:10:35.419Z,2.72
2024-05-09T18:13:08.810Z,2.80
2024-05-09T18:15:41.851Z,2.85
2024-05-09T18:22:17.496Z,3.45
2024-05-09T18:24:47.264Z,3.38
2024-05-09T18:27:20.123Z,3.10
2024-05-09T18:29:50.246Z,3.33
2024-05-09T18:32:23.023Z,3.25
2024-05-09T18:34:53.712Z,3.33
2024-05-09T18:37:29.728Z,3.15
2024-05-09T18:39:59.784Z,3.42
2024-05-09T18:42:33.365Z,3.42
2024-05-09T18:45:04.182Z,3.50
2024-05-09T18:47:40.026Z,3.65
2024-05-09T18:50:17.187Z,3.80
2024-05-09T18:52:59.486Z,4.50
2024-05-09T18:55:29.475Z,4.03
2024-05-09T18:58:03.709Z,3.75
2024-05-09T19:00:37.846Z,3.88
2024-05-09T19:03:14.499Z,4.05
2024-05-09T19:05:46.338Z,4.80
2024-05-09T19:08:22.052Z,4.95
2024-05-09T19:10:53.062Z,4.90
2024-05-09T19:13:26.311Z,5.50
2024-05-09T19:15:56.714Z,4.82
2024-05-09T19:18:31.491Z,5.22
2024-05-09T19:21:01.660Z,5.60
2024-05-09T19:23:38.499Z,5.68
2024-05-09T19:26:13.760Z,5.35
2024-05-09T19:28:46.543Z,5.20
2024-05-09T19:31:17.586Z,4.90
2024-05-09T19:33:50.284Z,5.18
2024-05-09T19:36:20.705Z,5.43
2024-05-09T19:38:56.343Z,5.38
2024-05-09T19:41:27.389Z,4.95
2024-05-09T19:44:00.394Z,5.15
2024-05-09T19:46:30.784Z,4.50
2024-05-09T19:49:05.965Z,4.63
2024-05-09T19:51:38.740Z,4.55
2024-05-09T19:54:15.180Z,3.85
2024-05-09T19:56:49.718Z,4.22
2024-05-09T19:59:22.586Z,4.00
2024-05-09T20:01:54.341Z,4.70
2024-05-09T20:04:31.530Z,5.60
2024-05-09T20:07:01.286Z,5.00
2024-05-09T20:09:43.866Z,4.63
2024-05-09T20:12:15.808Z,5.05
2024-05-09T20:14:48.787Z,5.43
2024-05-09T20:17:18.502Z,4.93
2024-05-09T20:19:51.699Z,4.78
2024-05-09T20:22:23.694Z,4.90
2024-05-09T20:25:05.808Z,4.15
2024-05-09T20:27:36.132Z,4.20
2024-05-09T20:30:14.415Z,3.80
2024-05-09T20:32:50.133Z,3.80
2024-05-09T20:35:26.321Z,3.92
2024-05-09T20:37:57.658Z,3.30
2024-05-09T20:40:37.845Z,3.38
2024-05-09T20:43:11.437Z,3.25
2024-05-09T20:45:44.856Z,3.63
2024-05-09T20:48:14.847Z,2.90
2024-05-09T20:50:49.901Z,3.20
2024-05-09T20:53:20.694Z,3.22
2024-05-09T20:55:56.944Z,3.40
2024-05-09T20:58:28.930Z,3.28
2024-05-09T21:01:01.704Z,3.00
2024-05-09T21:03:33.436Z,3.15
2024-05-09T21:06:07.980Z,3.22
2024-05-09T21:08:38.297Z,3.00
2024-05-09T21:11:13.333Z,3.30
2024-05-09T21:13:43.044Z,2.80
2024-05-09T21:16:16.102Z,2.95
2024-05-09T21:18:46.394Z,3.30
2024-05-09T21:21:19.202Z,3.03
2024-05-09T21:23:49.252Z,3.28
2024-05-09T21:26:25.627Z,2.95
2024-05-09T21:28:56.871Z,3.15
2024-05-09T21:31:29.547Z,2.80
2024-05-09T21:34:00.128Z,3.15
2024-05-09T21:36:32.778Z,3.15
2024-05-09T21:39:02.776Z,3.00
2024-05-09T21:41:38.003Z,3.00
2024-05-09T21:44:08.743Z,2.88
2024-05-09T21:46:41.305Z,3.00
2024-05-09T21:49:11.571Z,3.50
2024-05-09T21:51:44.368Z,3.38
2024-05-09T21:54:14.544Z,3.03
2024-05-09T21:56:49.886Z,2.97
2024-05-09T21:59:19.706Z,2.85
2024-05-09T22:01:52.610Z,3.05
2024-05-09T22:04:22.555Z,3.00
2024-05-09T22:06:55.549Z,3.20
2024-05-09T22:09:25.353Z,3.17
2024-05-09T22:12:01.430Z,2.85
2024-05-09T22:14:31.165Z,3.05
2024-05-09T22:17:03.959Z,3.15
2024-05-09T22:19:33.691Z,3.03
2024-05-09T22:22:06.235Z,3.25
2024-05-09T22:24:36.162Z,3.22
2024-05-09T22:27:12.734Z,3.33
2024-05-09T22:29:42.532Z,3.42
2024-05-09T22:32:15.456Z,3.72
2024-05-09T22:34:45.294Z,3.70
2024-05-09T22:37:18.314Z,3.58
2024-05-09T22:39:48.144Z,3.63
2024-05-09T22:42:23.677Z,3.80
2024-05-09T22:44:53.492Z,3.85
2024-05-09T22:47:26.312Z,4.05
2024-05-09T22:49:58.946Z,3.38
2024-05-09T22:52:29.165Z,3.97
2024-05-09T22:55:01.935Z,4.18
2024-05-09T22:57:35.416Z,3.90
2024-05-09T23:00:10.051Z,3.83
2024-05-09T23:02:44.923Z,4.13
2024-05-09T23:05:17.550Z,4.90
2024-05-09T23:07:47.482Z,4.55
2024-05-09T23:10:27.489Z,4.47
2024-05-09T23:13:05.335Z,4.38
2024-05-09T23:15:37.855Z,3.75
2024-05-09T23:18:08.744Z,4.38
2024-05-09T23:20:41.494Z,4.20
2024-05-09T23:23:12.337Z,4.65
2024-05-09T23:25:45.254Z,4.35
2024-05-09T23:28:19.854Z,3.90
2024-05-09T23:30:52.586Z,3.42
2024-05-09T23:33:22.643Z,3.60
2024-05-09T23:35:54.853Z,3.30
2024-05-09T23:38:25.786Z,3.70
2024-05-09T23:40:58.396Z,3.50
2024-05-09T23:43:30.867Z,3.45
2024-05-09T23:46:04.763Z,3.72
2024-05-09T23:48:34.931Z,3.95
2024-05-09T23:51:07.356Z,3.78
2024-05-09T23:53:37.257Z,3.47
2024-05-09T23:56:10.247Z,3.50
2024-05-09T23:58:42.728Z,3.30
